sensor_id;sensor_type;location;lat;lon;timestamp;temperature;humidity
64843;DHT22;51310;52.198;5.422;2023-03-23T00:01:26;10.60;99.90
64843;DHT22;51310;52.198;5.422;2023-03-23T00:03:55;10.60;99.90
64843;DHT22;51310;52.198;5.422;2023-03-23T00:06:24;10.60;99.90
64843;DHT22;51310;52.198;5.422;2023-03-23T00:08:53;10.60;99.90
64843;DHT22;51310;52.198;5.422;2023-03-23T00:11:26;10.60;99.90
64843;DHT22;51310;52.198;5.422;2023-03-23T00:13:56;10.60;99.90
64843;DHT22;51310;52.198;5.422;2023-03-23T00:16:25;10.50;99.90
64843;DHT22;51310;52.198;5.422;2023-03-23T00:19:04;10.50;99.90
64843;DHT22;51310;52.198;5.422;2023-03-23T00:21:34;10.50;99.90
64843;DHT22;51310;52.198;5.422;2023-03-23T00:26:39;10.50;99.90
64843;DHT22;51310;52.198;5.422;2023-03-23T00:29:08;10.60;99.90
64843;DHT22;51310;52.198;5.422;2023-03-23T00:31:40;10.60;99.90
64843;DHT22;51310;52.198;5.422;2023-03-23T00:34:06;10.60;99.90
64843;DHT22;51310;52.198;5.422;2023-03-23T00:36:33;10.60;99.90
64843;DHT22;51310;52.198;5.422;2023-03-23T00:39:02;10.60;99.90
64843;DHT22;51310;52.198;5.422;2023-03-23T00:41:29;10.60;99.90
64843;DHT22;51310;52.198;5.422;2023-03-23T00:43:57;10.50;99.90
64843;DHT22;51310;52.198;5.422;2023-03-23T00:46:26;10.50;99.90
64843;DHT22;51310;52.198;5.422;2023-03-23T00:48:54;10.50;99.90
64843;DHT22;51310;52.198;5.422;2023-03-23T00:51:22;10.50;99.90
64843;DHT22;51310;52.198;5.422;2023-03-23T00:53:49;10.50;99.90
64843;DHT22;51310;52.198;5.422;2023-03-23T00:56:15;10.50;99.90
64843;DHT22;51310;52.198;5.422;2023-03-23T00:58:41;10.50;99.90
64843;DHT22;51310;52.198;5.422;2023-03-23T01:01:07;10.50;99.90
64843;DHT22;51310;52.198;5.422;2023-03-23T01:03:34;10.60;99.90
64843;DHT22;51310;52.198;5.422;2023-03-23T01:06:06;10.60;99.90
64843;DHT22;51310;52.198;5.422;2023-03-23T01:08:34;10.70;99.90
64843;DHT22;51310;52.198;5.422;2023-03-23T01:11:05;10.70;99.90
64843;DHT22;51310;52.198;5.422;2023-03-23T01:13:32;10.70;99.90
64843;DHT22;51310;52.198;5.422;2023-03-23T01:15:58;10.70;99.90
64843;DHT22;51310;52.198;5.422;2023-03-23T01:18:24;10.80;99.90
64843;DHT22;51310;52.198;5.422;2023-03-23T01:20:49;10.70;99.90
64843;DHT22;51310;52.198;5.422;2023-03-23T01:23:15;10.80;99.90
64843;DHT22;51310;52.198;5.422;2023-03-23T01:25:41;10.80;99.90
64843;DHT22;51310;52.198;5.422;2023-03-23T01:28:06;10.70;99.90
64843;DHT22;51310;52.198;5.422;2023-03-23T01:30:32;10.70;99.90
64843;DHT22;51310;52.198;5.422;2023-03-23T01:32:58;10.70;99.90
64843;DHT22;51310;52.198;5.422;2023-03-23T01:35:23;10.80;99.90
64843;DHT22;51310;52.198;5.422;2023-03-23T01:37:49;10.70;99.90
64843;DHT22;51310;52.198;5.422;2023-03-23T01:40:16;10.80;99.90
64843;DHT22;51310;52.198;5.422;2023-03-23T01:42:41;10.70;99.90
64843;DHT22;51310;52.198;5.422;2023-03-23T01:51:13;10.80;99.90
64843;DHT22;51310;52.198;5.422;2023-03-23T01:54:02;10.80;99.90
64843;DHT22;51310;52.198;5.422;2023-03-23T01:56:37;10.80;99.90
64843;DHT22;51310;52.198;5.422;2023-03-23T01:59:11;10.80;99.90
64843;DHT22;51310;52.198;5.422;2023-03-23T02:01:39;10.80;99.90
64843;DHT22;51310;52.198;5.422;2023-03-23T02:04:12;10.80;99.90
64843;DHT22;51310;52.198;5.422;2023-03-23T02:06:40;10.80;99.90
64843;DHT22;51310;52.198;5.422;2023-03-23T02:09:06;10.80;99.90
64843;DHT22;51310;52.198;5.422;2023-03-23T02:11:32;10.80;99.90
64843;DHT22;51310;52.198;5.422;2023-03-23T02:13:59;10.80;99.90
64843;DHT22;51310;52.198;5.422;2023-03-23T02:24:57;10.80;99.90
64843;DHT22;51310;52.198;5.422;2023-03-23T02:30:30;10.90;99.90
64843;DHT22;51310;52.198;5.422;2023-03-23T02:39:14;11.00;99.90
64843;DHT22;51310;52.198;5.422;2023-03-23T02:42:04;10.90;99.90
64843;DHT22;51310;52.198;5.422;2023-03-23T02:44:34;10.90;99.90
64843;DHT22;51310;52.198;5.422;2023-03-23T02:47:05;11.00;99.90
64843;DHT22;51310;52.198;5.422;2023-03-23T02:49:36;11.00;99.90
64843;DHT22;51310;52.198;5.422;2023-03-23T02:52:10;11.00;99.90
64843;DHT22;51310;52.198;5.422;2023-03-23T02:54:42;11.00;99.90
64843;DHT22;51310;52.198;5.422;2023-03-23T02:57:10;11.10;99.90
64843;DHT22;51310;52.198;5.422;2023-03-23T02:59:36;11.10;99.90
64843;DHT22;51310;52.198;5.422;2023-03-23T03:02:09;11.10;99.90
64843;DHT22;51310;52.198;5.422;2023-03-23T03:10:48;11.10;99.90
64843;DHT22;51310;52.198;5.422;2023-03-23T03:13:34;11.10;99.90
64843;DHT22;51310;52.198;5.422;2023-03-23T03:19:34;11.10;99.90
64843;DHT22;51310;52.198;5.422;2023-03-23T03:22:08;11.10;99.90
64843;DHT22;51310;52.198;5.422;2023-03-23T03:24:35;11.10;99.90
64843;DHT22;51310;52.198;5.422;2023-03-23T03:27:04;11.20;99.90
64843;DHT22;51310;52.198;5.422;2023-03-23T03:29:38;11.20;99.90
64843;DHT22;51310;52.198;5.422;2023-03-23T03:32:10;11.30;99.90
64843;DHT22;51310;52.198;5.422;2023-03-23T03:34:38;11.30;99.90
64843;DHT22;51310;52.198;5.422;2023-03-23T03:37:05;11.30;99.90
64843;DHT22;51310;52.198;5.422;2023-03-23T03:39:34;11.30;99.90
64843;DHT22;51310;52.198;5.422;2023-03-23T03:42:02;11.30;99.90
64843;DHT22;51310;52.198;5.422;2023-03-23T03:44:30;11.30;99.90
64843;DHT22;51310;52.198;5.422;2023-03-23T03:46:56;11.30;99.90
64843;DHT22;51310;52.198;5.422;2023-03-23T03:49:22;11.40;99.90
64843;DHT22;51310;52.198;5.422;2023-03-23T03:51:48;11.40;99.90
64843;DHT22;51310;52.198;5.422;2023-03-23T03:54:14;11.30;99.90
64843;DHT22;51310;52.198;5.422;2023-03-23T03:56:41;11.30;99.90
64843;DHT22;51310;52.198;5.422;2023-03-23T03:59:10;11.30;99.90
64843;DHT22;51310;52.198;5.422;2023-03-23T04:01:37;11.30;99.90
64843;DHT22;51310;52.198;5.422;2023-03-23T04:04:04;11.30;99.90
64843;DHT22;51310;52.198;5.422;2023-03-23T04:06:33;11.40;99.90
64843;DHT22;51310;52.198;5.422;2023-03-23T04:09:01;11.40;99.90
64843;DHT22;51310;52.198;5.422;2023-03-23T04:11:30;11.40;99.90
64843;DHT22;51310;52.198;5.422;2023-03-23T04:13:57;11.40;99.90
64843;DHT22;51310;52.198;5.422;2023-03-23T04:16:22;11.40;99.90
64843;DHT22;51310;52.198;5.422;2023-03-23T04:18:48;11.50;99.90
64843;DHT22;51310;52.198;5.422;2023-03-23T04:21:15;11.50;99.90
64843;DHT22;51310;52.198;5.422;2023-03-23T04:23:41;11.50;99.90
64843;DHT22;51310;52.198;5.422;2023-03-23T04:26:07;11.50;99.90
64843;DHT22;51310;52.198;5.422;2023-03-23T04:28:33;11.50;99.90
64843;DHT22;51310;52.198;5.422;2023-03-23T04:31:00;11.50;99.90
64843;DHT22;51310;52.198;5.422;2023-03-23T04:33:28;11.50;99.90
64843;DHT22;51310;52.198;5.422;2023-03-23T04:35:57;11.50;99.90
64843;DHT22;51310;52.198;5.422;2023-03-23T04:38:27;11.60;99.90
64843;DHT22;51310;52.198;5.422;2023-03-23T04:40:53;11.60;99.90
64843;DHT22;51310;52.198;5.422;2023-03-23T04:43:21;11.50;99.90
64843;DHT22;51310;52.198;5.422;2023-03-23T04:45:55;11.50;99.90
64843;DHT22;51310;52.198;5.422;2023-03-23T04:48:25;11.60;99.90
64843;DHT22;51310;52.198;5.422;2023-03-23T04:50:53;11.60;99.90
64843;DHT22;51310;52.198;5.422;2023-03-23T04:53:19;11.70;99.90
64843;DHT22;51310;52.198;5.422;2023-03-23T04:55:46;11.70;99.90
64843;DHT22;51310;52.198;5.422;2023-03-23T04:58:13;11.70;99.90
64843;DHT22;51310;52.198;5.422;2023-03-23T05:00:40;11.70;99.90
64843;DHT22;51310;52.198;5.422;2023-03-23T05:03:09;11.70;99.90
64843;DHT22;51310;52.198;5.422;2023-03-23T05:05:35;11.70;99.90
64843;DHT22;51310;52.198;5.422;2023-03-23T05:08:02;11.60;99.90
64843;DHT22;51310;52.198;5.422;2023-03-23T05:10:28;11.60;99.90
64843;DHT22;51310;52.198;5.422;2023-03-23T05:12:54;11.60;99.90
64843;DHT22;51310;52.198;5.422;2023-03-23T05:15:20;11.50;99.90
64843;DHT22;51310;52.198;5.422;2023-03-23T05:17:46;11.50;99.90
64843;DHT22;51310;52.198;5.422;2023-03-23T05:20:16;11.40;99.90
64843;DHT22;51310;52.198;5.422;2023-03-23T05:22:46;11.30;99.90
64843;DHT22;51310;52.198;5.422;2023-03-23T05:25:16;11.30;99.90
64843;DHT22;51310;52.198;5.422;2023-03-23T05:27:46;11.20;99.90
64843;DHT22;51310;52.198;5.422;2023-03-23T05:30:17;11.20;99.90
64843;DHT22;51310;52.198;5.422;2023-03-23T05:32:44;11.10;99.90
64843;DHT22;51310;52.198;5.422;2023-03-23T05:35:11;11.10;99.90
64843;DHT22;51310;52.198;5.422;2023-03-23T05:37:38;11.00;99.90
64843;DHT22;51310;52.198;5.422;2023-03-23T05:40:05;10.90;99.90
64843;DHT22;51310;52.198;5.422;2023-03-23T05:42:36;10.80;99.90
64843;DHT22;51310;52.198;5.422;2023-03-23T05:45:03;10.60;99.90
64843;DHT22;51310;52.198;5.422;2023-03-23T05:47:29;10.40;99.90
64843;DHT22;51310;52.198;5.422;2023-03-23T05:49:56;10.20;99.90
64843;DHT22;51310;52.198;5.422;2023-03-23T05:52:22;10.10;99.90
64843;DHT22;51310;52.198;5.422;2023-03-23T05:54:49;10.10;99.90
64843;DHT22;51310;52.198;5.422;2023-03-23T05:57:15;10.00;99.90
64843;DHT22;51310;52.198;5.422;2023-03-23T05:59:41;10.00;99.90
64843;DHT22;51310;52.198;5.422;2023-03-23T06:02:07;10.00;99.90
64843;DHT22;51310;52.198;5.422;2023-03-23T06:04:33;10.00;99.90
64843;DHT22;51310;52.198;5.422;2023-03-23T06:07:00;10.00;99.90
64843;DHT22;51310;52.198;5.422;2023-03-23T06:09:26;10.00;99.90
64843;DHT22;51310;52.198;5.422;2023-03-23T06:11:52;10.00;99.90
64843;DHT22;51310;52.198;5.422;2023-03-23T06:14:17;10.00;99.90
64843;DHT22;51310;52.198;5.422;2023-03-23T06:16:43;10.00;99.90
64843;DHT22;51310;52.198;5.422;2023-03-23T06:19:09;9.90;99.90
64843;DHT22;51310;52.198;5.422;2023-03-23T06:21:37;9.90;99.90
64843;DHT22;51310;52.198;5.422;2023-03-23T06:24:03;9.80;99.90
64843;DHT22;51310;52.198;5.422;2023-03-23T06:26:35;9.90;99.90
64843;DHT22;51310;52.198;5.422;2023-03-23T06:29:04;9.90;99.90
64843;DHT22;51310;52.198;5.422;2023-03-23T06:31:40;9.90;99.90
64843;DHT22;51310;52.198;5.422;2023-03-23T06:34:10;9.90;99.90
64843;DHT22;51310;52.198;5.422;2023-03-23T06:36:37;9.80;99.90
64843;DHT22;51310;52.198;5.422;2023-03-23T06:39:04;9.80;99.90
64843;DHT22;51310;52.198;5.422;2023-03-23T06:41:33;9.80;99.90
64843;DHT22;51310;52.198;5.422;2023-03-23T06:44:00;9.80;99.90
64843;DHT22;51310;52.198;5.422;2023-03-23T06:46:26;9.80;99.90
64843;DHT22;51310;52.198;5.422;2023-03-23T06:48:53;9.70;99.90
64843;DHT22;51310;52.198;5.422;2023-03-23T06:51:20;9.70;99.90
64843;DHT22;51310;52.198;5.422;2023-03-23T06:53:46;9.70;99.90
64843;DHT22;51310;52.198;5.422;2023-03-23T06:56:12;9.70;99.90
64843;DHT22;51310;52.198;5.422;2023-03-23T06:58:39;9.70;99.90
64843;DHT22;51310;52.198;5.422;2023-03-23T07:01:07;9.70;99.90
64843;DHT22;51310;52.198;5.422;2023-03-23T07:03:35;9.70;99.90
64843;DHT22;51310;52.198;5.422;2023-03-23T07:06:02;9.70;99.90
64843;DHT22;51310;52.198;5.422;2023-03-23T07:08:29;9.80;99.90
64843;DHT22;51310;52.198;5.422;2023-03-23T07:10:57;9.80;99.90
64843;DHT22;51310;52.198;5.422;2023-03-23T07:13:23;9.90;99.90
64843;DHT22;51310;52.198;5.422;2023-03-23T07:15:49;10.00;99.90
64843;DHT22;51310;52.198;5.422;2023-03-23T07:18:16;10.00;99.90
64843;DHT22;51310;52.198;5.422;2023-03-23T07:20:42;10.00;99.90
64843;DHT22;51310;52.198;5.422;2023-03-23T07:23:08;10.10;99.90
64843;DHT22;51310;52.198;5.422;2023-03-23T07:25:34;10.10;99.90
64843;DHT22;51310;52.198;5.422;2023-03-23T07:28:02;10.20;99.90
64843;DHT22;51310;52.198;5.422;2023-03-23T07:30:29;10.20;99.90
64843;DHT22;51310;52.198;5.422;2023-03-23T07:32:56;10.30;99.90
64843;DHT22;51310;52.198;5.422;2023-03-23T07:35:23;10.40;99.90
64843;DHT22;51310;52.198;5.422;2023-03-23T07:37:49;10.50;99.90
64843;DHT22;51310;52.198;5.422;2023-03-23T07:40:16;10.50;99.90
64843;DHT22;51310;52.198;5.422;2023-03-23T07:42:45;10.60;99.90
64843;DHT22;51310;52.198;5.422;2023-03-23T07:45:12;10.70;99.90
64843;DHT22;51310;52.198;5.422;2023-03-23T07:47:39;10.80;99.90
64843;DHT22;51310;52.198;5.422;2023-03-23T07:50:06;10.80;99.90
64843;DHT22;51310;52.198;5.422;2023-03-23T07:52:34;10.80;99.90
64843;DHT22;51310;52.198;5.422;2023-03-23T07:55:02;10.80;99.90
64843;DHT22;51310;52.198;5.422;2023-03-23T07:57:30;10.80;99.90
64843;DHT22;51310;52.198;5.422;2023-03-23T07:59:56;10.90;99.90
64843;DHT22;51310;52.198;5.422;2023-03-23T08:02:23;10.90;99.90
64843;DHT22;51310;52.198;5.422;2023-03-23T08:04:50;11.00;99.90
64843;DHT22;51310;52.198;5.422;2023-03-23T08:07:17;11.00;99.90
64843;DHT22;51310;52.198;5.422;2023-03-23T08:09:44;11.10;99.90
64843;DHT22;51310;52.198;5.422;2023-03-23T08:12:10;11.10;99.90
64843;DHT22;51310;52.198;5.422;2023-03-23T08:14:37;11.10;99.90
64843;DHT22;51310;52.198;5.422;2023-03-23T08:17:03;11.10;99.90
64843;DHT22;51310;52.198;5.422;2023-03-23T08:19:29;11.10;99.90
64843;DHT22;51310;52.198;5.422;2023-03-23T08:21:55;11.10;99.90
64843;DHT22;51310;52.198;5.422;2023-03-23T08:24:21;11.10;99.90
64843;DHT22;51310;52.198;5.422;2023-03-23T08:26:47;11.10;99.90
64843;DHT22;51310;52.198;5.422;2023-03-23T08:29:12;11.10;99.90
64843;DHT22;51310;52.198;5.422;2023-03-23T08:31:39;11.10;99.90
64843;DHT22;51310;52.198;5.422;2023-03-23T08:34:05;11.10;99.90
64843;DHT22;51310;52.198;5.422;2023-03-23T08:36:34;11.10;99.90
64843;DHT22;51310;52.198;5.422;2023-03-23T08:39:03;11.30;99.90
64843;DHT22;51310;52.198;5.422;2023-03-23T08:41:31;11.40;99.90
64843;DHT22;51310;52.198;5.422;2023-03-23T08:43:57;11.50;99.90
64843;DHT22;51310;52.198;5.422;2023-03-23T08:46:23;11.70;99.90
64843;DHT22;51310;52.198;5.422;2023-03-23T08:48:49;11.70;99.90
64843;DHT22;51310;52.198;5.422;2023-03-23T08:51:15;11.70;99.90
64843;DHT22;51310;52.198;5.422;2023-03-23T08:53:42;11.60;99.90
64843;DHT22;51310;52.198;5.422;2023-03-23T08:56:10;11.50;99.90
64843;DHT22;51310;52.198;5.422;2023-03-23T08:58:38;11.40;99.90
64843;DHT22;51310;52.198;5.422;2023-03-23T09:01:06;11.30;99.90
64843;DHT22;51310;52.198;5.422;2023-03-23T09:03:34;11.30;99.90
64843;DHT22;51310;52.198;5.422;2023-03-23T09:06:02;11.30;99.90
64843;DHT22;51310;52.198;5.422;2023-03-23T09:08:31;11.30;99.90
64843;DHT22;51310;52.198;5.422;2023-03-23T09:11:06;11.30;99.90
64843;DHT22;51310;52.198;5.422;2023-03-23T09:13:34;11.40;99.90
64843;DHT22;51310;52.198;5.422;2023-03-23T09:16:02;11.50;99.90
64843;DHT22;51310;52.198;5.422;2023-03-23T09:18:29;11.70;99.90
64843;DHT22;51310;52.198;5.422;2023-03-23T09:20:58;11.70;99.90
64843;DHT22;51310;52.198;5.422;2023-03-23T09:23:24;11.90;99.90
64843;DHT22;51310;52.198;5.422;2023-03-23T09:25:51;11.90;99.90
64843;DHT22;51310;52.198;5.422;2023-03-23T09:28:17;12.00;99.90
64843;DHT22;51310;52.198;5.422;2023-03-23T09:30:44;12.10;99.90
64843;DHT22;51310;52.198;5.422;2023-03-23T09:33:11;12.10;99.90
64843;DHT22;51310;52.198;5.422;2023-03-23T09:35:37;12.10;99.90
64843;DHT22;51310;52.198;5.422;2023-03-23T09:38:04;12.20;99.90
64843;DHT22;51310;52.198;5.422;2023-03-23T09:40:45;12.30;99.90
64843;DHT22;51310;52.198;5.422;2023-03-23T09:49:33;12.60;99.90
64843;DHT22;51310;52.198;5.422;2023-03-23T09:52:18;12.60;99.90
64843;DHT22;51310;52.198;5.422;2023-03-23T09:54:53;12.70;99.90
64843;DHT22;51310;52.198;5.422;2023-03-23T09:57:35;12.80;99.90
64843;DHT22;51310;52.198;5.422;2023-03-23T10:00:16;12.90;99.90
64843;DHT22;51310;52.198;5.422;2023-03-23T10:03:15;12.80;99.90
64843;DHT22;51310;52.198;5.422;2023-03-23T10:05:44;12.70;99.90
64843;DHT22;51310;52.198;5.422;2023-03-23T10:08:21;12.80;99.90
64843;DHT22;51310;52.198;5.422;2023-03-23T10:11:32;13.00;99.90
64843;DHT22;51310;52.198;5.422;2023-03-23T10:14:29;13.10;99.90
64843;DHT22;51310;52.198;5.422;2023-03-23T10:28:46;13.50;99.90
64843;DHT22;51310;52.198;5.422;2023-03-23T10:31:24;13.50;99.90
64843;DHT22;51310;52.198;5.422;2023-03-23T10:34:01;13.50;99.90
64843;DHT22;51310;52.198;5.422;2023-03-23T10:36:35;13.50;99.90
64843;DHT22;51310;52.198;5.422;2023-03-23T10:39:13;13.30;99.90
64843;DHT22;51310;52.198;5.422;2023-03-23T10:41:44;13.30;99.90
64843;DHT22;51310;52.198;5.422;2023-03-23T10:44:18;13.30;99.90
64843;DHT22;51310;52.198;5.422;2023-03-23T10:49:33;13.50;99.90
64843;DHT22;51310;52.198;5.422;2023-03-23T10:52:26;13.50;99.90
64843;DHT22;51310;52.198;5.422;2023-03-23T10:57:40;13.90;99.90
64843;DHT22;51310;52.198;5.422;2023-03-23T11:03:03;13.70;99.90
64843;DHT22;51310;52.198;5.422;2023-03-23T11:05:56;13.60;99.90
64843;DHT22;51310;52.198;5.422;2023-03-23T11:08:28;13.60;99.90
64843;DHT22;51310;52.198;5.422;2023-03-23T11:14:14;13.70;99.90
64843;DHT22;51310;52.198;5.422;2023-03-23T11:19:36;14.00;99.90
64843;DHT22;51310;52.198;5.422;2023-03-23T11:22:08;14.00;99.90
64843;DHT22;51310;52.198;5.422;2023-03-23T11:24:47;14.10;99.90
64843;DHT22;51310;52.198;5.422;2023-03-23T11:27:19;14.20;99.90
64843;DHT22;51310;52.198;5.422;2023-03-23T11:29:55;14.30;99.90
64843;DHT22;51310;52.198;5.422;2023-03-23T11:32:35;14.30;99.90
64843;DHT22;51310;52.198;5.422;2023-03-23T11:35:11;14.20;99.90
64843;DHT22;51310;52.198;5.422;2023-03-23T11:37:50;14.20;99.90
64843;DHT22;51310;52.198;5.422;2023-03-23T11:40:21;14.20;99.90
64843;DHT22;51310;52.198;5.422;2023-03-23T11:45:32;14.10;99.90
64843;DHT22;51310;52.198;5.422;2023-03-23T11:51:11;14.20;99.90
64843;DHT22;51310;52.198;5.422;2023-03-23T11:56:34;14.40;99.90
64843;DHT22;51310;52.198;5.422;2023-03-23T11:59:03;14.30;99.90
64843;DHT22;51310;52.198;5.422;2023-03-23T12:07:46;14.30;99.90
64843;DHT22;51310;52.198;5.422;2023-03-23T12:10:39;14.30;78.60
64843;DHT22;51310;52.198;5.422;2023-03-23T12:36:29;14.10;99.90
64843;DHT22;51310;52.198;5.422;2023-03-23T12:42:14;14.40;99.90
64843;DHT22;51310;52.198;5.422;2023-03-23T12:48:16;14.40;91.10
64843;DHT22;51310;52.198;5.422;2023-03-23T12:54:03;14.20;96.20
64843;DHT22;51310;52.198;5.422;2023-03-23T12:56:53;14.30;96.30
64843;DHT22;51310;52.198;5.422;2023-03-23T12:59:36;14.50;96.80
64843;DHT22;51310;52.198;5.422;2023-03-23T13:05:03;14.80;89.20
64843;DHT22;51310;52.198;5.422;2023-03-23T13:07:37;14.70;88.90
64843;DHT22;51310;52.198;5.422;2023-03-23T13:10:23;14.50;92.10
64843;DHT22;51310;52.198;5.422;2023-03-23T13:12:55;14.30;95.10
64843;DHT22;51310;52.198;5.422;2023-03-23T13:15:57;14.30;98.10
64843;DHT22;51310;52.198;5.422;2023-03-23T13:21:31;14.50;96.40
64843;DHT22;51310;52.198;5.422;2023-03-23T13:24:15;14.50;95.80
64843;DHT22;51310;52.198;5.422;2023-03-23T13:26:46;14.50;95.90
64843;DHT22;51310;52.198;5.422;2023-03-23T13:29:20;14.50;97.90
64843;DHT22;51310;52.198;5.422;2023-03-23T13:31:50;14.50;92.90
64843;DHT22;51310;52.198;5.422;2023-03-23T13:34:29;14.50;96.10
64843;DHT22;51310;52.198;5.422;2023-03-23T13:39:30;14.50;96.30
64843;DHT22;51310;52.198;5.422;2023-03-23T13:45:07;14.80;92.70
64843;DHT22;51310;52.198;5.422;2023-03-23T13:47:43;15.00;88.30
64843;DHT22;51310;52.198;5.422;2023-03-23T13:50:23;15.00;90.00
64843;DHT22;51310;52.198;5.422;2023-03-23T13:53:00;15.00;87.30
64843;DHT22;51310;52.198;5.422;2023-03-23T13:55:42;15.00;89.50
64843;DHT22;51310;52.198;5.422;2023-03-23T13:58:26;15.20;83.10
64843;DHT22;51310;52.198;5.422;2023-03-23T14:01:13;15.20;80.60
64843;DHT22;51310;52.198;5.422;2023-03-23T14:03:49;15.20;60.00
64843;DHT22;51310;52.198;5.422;2023-03-23T14:06:23;15.10;59.70
64843;DHT22;51310;52.198;5.422;2023-03-23T14:08:53;15.00;59.20
64843;DHT22;51310;52.198;5.422;2023-03-23T14:11:23;15.00;60.40
64843;DHT22;51310;52.198;5.422;2023-03-23T14:16:36;14.90;61.70
64843;DHT22;51310;52.198;5.422;2023-03-23T14:19:25;14.90;61.20
64843;DHT22;51310;52.198;5.422;2023-03-23T14:21:58;14.80;61.50
64843;DHT22;51310;52.198;5.422;2023-03-23T14:24:31;14.70;65.50
64843;DHT22;51310;52.198;5.422;2023-03-23T14:27:14;14.20;68.90
64843;DHT22;51310;52.198;5.422;2023-03-23T14:29:43;13.50;98.90
64843;DHT22;51310;52.198;5.422;2023-03-23T14:32:15;12.90;99.90
64843;DHT22;51310;52.198;5.422;2023-03-23T14:34:46;12.50;99.90
64843;DHT22;51310;52.198;5.422;2023-03-23T14:37:14;12.50;99.90
64843;DHT22;51310;52.198;5.422;2023-03-23T14:39:45;12.50;99.90
64843;DHT22;51310;52.198;5.422;2023-03-23T14:42:16;12.50;99.90
64843;DHT22;51310;52.198;5.422;2023-03-23T14:44:47;12.50;99.90
64843;DHT22;51310;52.198;5.422;2023-03-23T14:47:23;12.50;99.90
64843;DHT22;51310;52.198;5.422;2023-03-23T14:49:56;12.60;99.90
64843;DHT22;51310;52.198;5.422;2023-03-23T14:52:26;12.80;99.90
64843;DHT22;51310;52.198;5.422;2023-03-23T14:55:07;12.90;99.90
64843;DHT22;51310;52.198;5.422;2023-03-23T14:57:40;13.10;99.90
64843;DHT22;51310;52.198;5.422;2023-03-23T15:00:23;13.10;99.90
64843;DHT22;51310;52.198;5.422;2023-03-23T15:02:59;13.10;99.90
64843;DHT22;51310;52.198;5.422;2023-03-23T15:05:36;13.20;99.90
64843;DHT22;51310;52.198;5.422;2023-03-23T15:08:14;13.30;99.90
64843;DHT22;51310;52.198;5.422;2023-03-23T15:11:01;13.30;99.90
64843;DHT22;51310;52.198;5.422;2023-03-23T15:13:54;13.50;99.90
64843;DHT22;51310;52.198;5.422;2023-03-23T15:16:27;13.50;99.90
64843;DHT22;51310;52.198;5.422;2023-03-23T15:18:57;13.60;99.90
64843;DHT22;51310;52.198;5.422;2023-03-23T15:24:00;13.80;99.90
64843;DHT22;51310;52.198;5.422;2023-03-23T15:26:29;13.90;99.90
64843;DHT22;51310;52.198;5.422;2023-03-23T15:29:03;13.90;99.90
64843;DHT22;51310;52.198;5.422;2023-03-23T15:31:52;14.00;99.90
64843;DHT22;51310;52.198;5.422;2023-03-23T15:36:56;14.10;99.90
64843;DHT22;51310;52.198;5.422;2023-03-23T15:39:27;14.10;99.90
64843;DHT22;51310;52.198;5.422;2023-03-23T15:41:55;14.10;99.90
64843;DHT22;51310;52.198;5.422;2023-03-23T15:44:28;14.10;99.90
64843;DHT22;51310;52.198;5.422;2023-03-23T15:47:22;14.10;99.90
64843;DHT22;51310;52.198;5.422;2023-03-23T15:50:01;14.00;99.90
64843;DHT22;51310;52.198;5.422;2023-03-23T15:52:33;14.00;99.90
64843;DHT22;51310;52.198;5.422;2023-03-23T15:54:58;14.10;99.90
64843;DHT22;51310;52.198;5.422;2023-03-23T15:57:24;14.10;99.90
64843;DHT22;51310;52.198;5.422;2023-03-23T15:59:50;14.20;99.90
64843;DHT22;51310;52.198;5.422;2023-03-23T16:02:20;14.20;99.90
64843;DHT22;51310;52.198;5.422;2023-03-23T16:04:49;14.20;99.90
64843;DHT22;51310;52.198;5.422;2023-03-23T16:07:20;14.20;99.90
64843;DHT22;51310;52.198;5.422;2023-03-23T16:09:48;14.20;99.90
64843;DHT22;51310;52.198;5.422;2023-03-23T16:12:13;14.20;99.90
64843;DHT22;51310;52.198;5.422;2023-03-23T16:14:40;14.30;99.90
64843;DHT22;51310;52.198;5.422;2023-03-23T16:17:13;14.30;99.90
64843;DHT22;51310;52.198;5.422;2023-03-23T16:19:42;14.40;99.90
64843;DHT22;51310;52.198;5.422;2023-03-23T16:22:08;14.40;99.90
64843;DHT22;51310;52.198;5.422;2023-03-23T16:24:34;14.40;99.90
64843;DHT22;51310;52.198;5.422;2023-03-23T16:26:59;14.30;99.90
64843;DHT22;51310;52.198;5.422;2023-03-23T16:29:25;14.20;99.90
64843;DHT22;51310;52.198;5.422;2023-03-23T16:31:52;14.10;99.90
64843;DHT22;51310;52.198;5.422;2023-03-23T16:34:17;13.90;99.90
64843;DHT22;51310;52.198;5.422;2023-03-23T16:36:43;13.90;99.90
64843;DHT22;51310;52.198;5.422;2023-03-23T16:39:11;13.80;99.90
64843;DHT22;51310;52.198;5.422;2023-03-23T16:41:37;13.80;99.90
64843;DHT22;51310;52.198;5.422;2023-03-23T16:44:03;13.70;99.90
64843;DHT22;51310;52.198;5.422;2023-03-23T16:46:29;13.80;99.90
64843;DHT22;51310;52.198;5.422;2023-03-23T16:48:55;13.80;99.90
64843;DHT22;51310;52.198;5.422;2023-03-23T16:51:21;13.80;99.90
64843;DHT22;51310;52.198;5.422;2023-03-23T16:53:48;13.90;99.90
64843;DHT22;51310;52.198;5.422;2023-03-23T16:56:13;13.90;99.90
64843;DHT22;51310;52.198;5.422;2023-03-23T16:58:39;13.80;99.90
64843;DHT22;51310;52.198;5.422;2023-03-23T17:01:06;13.80;99.90
64843;DHT22;51310;52.198;5.422;2023-03-23T17:03:32;13.80;99.90
64843;DHT22;51310;52.198;5.422;2023-03-23T17:05:59;13.70;99.90
64843;DHT22;51310;52.198;5.422;2023-03-23T17:08:26;13.70;99.90
64843;DHT22;51310;52.198;5.422;2023-03-23T17:10:52;13.70;99.90
64843;DHT22;51310;52.198;5.422;2023-03-23T17:13:18;13.70;99.90
64843;DHT22;51310;52.198;5.422;2023-03-23T17:15:45;13.70;99.90
64843;DHT22;51310;52.198;5.422;2023-03-23T17:18:11;13.70;99.90
64843;DHT22;51310;52.198;5.422;2023-03-23T17:20:37;13.60;99.90
64843;DHT22;51310;52.198;5.422;2023-03-23T17:23:04;13.50;99.90
64843;DHT22;51310;52.198;5.422;2023-03-23T17:25:30;13.50;99.90
64843;DHT22;51310;52.198;5.422;2023-03-23T17:27:57;13.40;99.90
64843;DHT22;51310;52.198;5.422;2023-03-23T17:30:23;13.40;99.90
64843;DHT22;51310;52.198;5.422;2023-03-23T17:32:49;13.30;99.90
64843;DHT22;51310;52.198;5.422;2023-03-23T17:35:15;13.30;99.90
64843;DHT22;51310;52.198;5.422;2023-03-23T17:37:41;13.30;99.90
64843;DHT22;51310;52.198;5.422;2023-03-23T17:40:08;13.30;99.90
64843;DHT22;51310;52.198;5.422;2023-03-23T17:42:36;13.30;99.90
64843;DHT22;51310;52.198;5.422;2023-03-23T17:45:06;13.30;99.90
64843;DHT22;51310;52.198;5.422;2023-03-23T17:47:33;13.30;99.90
64843;DHT22;51310;52.198;5.422;2023-03-23T17:49:59;13.30;99.90
64843;DHT22;51310;52.198;5.422;2023-03-23T17:52:25;13.20;99.90
64843;DHT22;51310;52.198;5.422;2023-03-23T17:54:51;13.20;99.90
64843;DHT22;51310;52.198;5.422;2023-03-23T17:57:18;13.10;99.90
64843;DHT22;51310;52.198;5.422;2023-03-23T17:59:45;13.10;99.90
64843;DHT22;51310;52.198;5.422;2023-03-23T18:02:11;13.10;99.90
64843;DHT22;51310;52.198;5.422;2023-03-23T18:04:38;13.10;99.90
64843;DHT22;51310;52.198;5.422;2023-03-23T18:07:06;13.00;99.90